Time;durP1;ratioP1;P1;durP2;ratioP2;P2;SDS_P1;SDS_P2;PMS_P1;PMS_P2;Temp;Humidity;BMP_temperature;BMP_pressure;BME280_temperature;BME280_humidity;BME280_pressure;Samples;Min_cycle;Max_cycle;Signal;HPM_P1;HPM_P2
2021/11/15 00:00:59;;;;;;;35.90;24.30;;;;;;;7.32;100.00;102253.28;5012439;28;20057;-86
2021/11/15 00:03:26;;;;;;;36.22;24.58;;;;;;;7.32;100.00;102250.59;4995092;28;20038;-86
2021/11/15 00:05:52;;;;;;;33.92;22.83;;;;;;;7.34;100.00;102245.19;4979404;28;20038;-85
2021/11/15 00:08:17;;;;;;;37.58;24.17;;;;;;;7.33;100.00;102249.63;4994577;28;20555;-87
2021/11/15 00:10:43;;;;;;;35.95;25.23;;;;;;;7.31;100.00;102243.56;4994779;28;20076;-86
2021/11/15 00:13:09;;;;;;;35.90;23.88;;;;;;;7.27;100.00;102242.06;4994164;28;20058;-88
2021/11/15 00:15:34;;;;;;;36.70;24.42;;;;;;;7.31;100.00;102240.91;4994665;28;20046;-86
2021/11/15 00:18:00;;;;;;;45.55;27.05;;;;;;;7.34;100.00;102240.69;4994508;28;20472;-85
2021/11/15 00:20:27;;;;;;;41.13;26.05;;;;;;;7.30;100.00;102233.84;4978849;28;20040;-87
2021/11/15 00:22:53;;;;;;;38.78;26.65;;;;;;;7.32;100.00;102242.59;5012395;28;20121;-86
2021/11/15 00:25:19;;;;;;;40.13;26.73;;;;;;;7.33;100.00;102232.75;5011505;28;20125;-88
2021/11/15 00:27:44;;;;;;;42.28;25.13;;;;;;;7.29;100.00;102229.47;5012370;28;20124;-86
2021/11/15 00:30:12;;;;;;;43.60;27.50;;;;;;;7.31;100.00;102226.66;5010225;28;20125;-87
2021/11/15 00:32:37;;;;;;;44.22;30.05;;;;;;;7.31;100.00;102214.19;4993907;28;20048;-87
2021/11/15 00:35:05;;;;;;;48.55;31.13;;;;;;;7.30;100.00;102215.13;5011388;28;20042;-85
2021/11/15 00:37:31;;;;;;;46.97;28.85;;;;;;;7.31;100.00;102213.31;4986498;28;20042;-87
2021/11/15 00:39:56;;;;;;;47.53;28.83;;;;;;;7.28;100.00;102210.88;4994696;28;20220;-86
2021/11/15 00:42:22;;;;;;;48.50;30.27;;;;;;;7.26;100.00;102212.81;4993641;28;20049;-85
2021/11/15 00:44:48;;;;;;;50.25;32.88;;;;;;;7.28;100.00;102206.41;4994624;28;20050;-85
2021/11/15 00:47:13;;;;;;;50.33;33.08;;;;;;;7.27;100.00;102203.81;4993858;28;20037;-85
2021/11/15 00:49:39;;;;;;;52.28;33.60;;;;;;;7.26;100.00;102208.31;5012944;28;20077;-89
2021/11/15 00:52:04;;;;;;;53.72;33.72;;;;;;;7.29;100.00;102205.44;4993822;28;20046;-86
2021/11/15 00:54:30;;;;;;;49.85;30.48;;;;;;;7.25;100.00;102211.97;4994170;28;20129;-86
2021/11/15 00:56:55;;;;;;;46.60;31.23;;;;;;;7.23;100.00;102214.72;4994368;28;20033;-86
2021/11/15 00:59:21;;;;;;;49.53;32.42;;;;;;;7.22;100.00;102223.72;5011235;28;20062;-90
2021/11/15 01:01:46;;;;;;;41.33;25.95;;;;;;;7.16;100.00;102224.16;5011712;28;20046;-85
2021/11/15 01:04:12;;;;;;;41.67;26.10;;;;;;;7.17;100.00;102225.00;4984003;28;20483;-84
2021/11/15 01:06:37;;;;;;;36.95;23.95;;;;;;;7.13;100.00;102229.66;4993310;28;20042;-87
2021/11/15 01:09:03;;;;;;;39.30;25.83;;;;;;;7.16;100.00;102223.25;4993715;28;20048;-86
2021/11/15 01:11:29;;;;;;;39.75;27.73;;;;;;;7.15;100.00;102222.41;4993932;28;20042;-87
2021/11/15 01:13:55;;;;;;;38.67;25.60;;;;;;;7.13;100.00;102221.66;4977708;28;20046;-86
2021/11/15 01:16:22;;;;;;;36.83;24.70;;;;;;;7.15;100.00;102226.91;4992067;28;20435;-87
2021/11/15 01:18:50;;;;;;;36.92;24.27;;;;;;;7.15;100.00;102227.75;4993962;28;20044;-87
2021/11/15 01:21:16;;;;;;;38.65;25.58;;;;;;;7.16;100.00;102225.94;4993415;28;20056;-87
2021/11/15 01:23:42;;;;;;;40.33;25.88;;;;;;;7.13;100.00;102224.31;4993925;28;20042;-86
2021/11/15 01:26:09;;;;;;;41.95;26.55;;;;;;;7.12;100.00;102222.63;5010618;28;20045;-86
2021/11/15 01:28:37;;;;;;;37.83;25.65;;;;;;;7.12;100.00;102221.78;5010825;28;20056;-87
2021/11/15 01:31:05;;;;;;;42.17;29.20;;;;;;;7.16;100.00;102224.16;5008245;28;20046;-85
2021/11/15 01:33:34;;;;;;;41.03;25.38;;;;;;;7.15;100.00;102218.91;4975598;28;20050;-88
2021/11/15 01:36:05;;;;;;;39.60;28.02;;;;;;;7.15;100.00;102225.09;4987955;28;20070;-87
2021/11/15 01:38:38;;;;;;;41.88;29.17;;;;;;;7.14;100.00;102225.22;5008930;28;20112;-88
2021/11/15 01:41:07;;;;;;;44.10;28.85;;;;;;;7.16;100.00;102217.91;5007839;28;20124;-89
2021/11/15 01:43:35;;;;;;;44.78;27.23;;;;;;;7.10;100.00;102218.34;4991256;28;20049;-89
2021/11/15 01:46:07;;;;;;;41.53;26.13;;;;;;;7.10;100.00;102223.69;5003281;28;20132;-86
2021/11/15 01:48:37;;;;;;;43.60;27.63;;;;;;;7.11;100.00;102214.75;5007501;28;20034;-86
2021/11/15 01:51:03;;;;;;;42.70;27.92;;;;;;;7.12;100.00;102221.78;4990545;28;20042;-87
2021/11/15 01:53:28;;;;;;;44.20;27.92;;;;;;;7.13;100.00;102218.13;4987220;28;20646;-84
2021/11/15 01:55:54;;;;;;;43.75;28.95;;;;;;;7.14;100.00;102225.22;4988389;28;20041;-87
2021/11/15 01:58:19;;;;;;;41.75;29.55;;;;;;;7.14;100.00;102219.88;5005719;28;20192;-86
2021/11/15 02:00:52;;;;;;;42.42;29.42;;;;;;;7.12;100.00;102217.28;5009509;28;20038;-85
2021/11/15 02:03:21;;;;;;;41.65;26.20;;;;;;;7.08;100.00;102214.94;5004201;28;20042;-87
2021/11/15 02:05:49;;;;;;;38.75;28.15;;;;;;;7.08;100.00;102207.81;4995610;28;20510;-85
2021/11/15 02:08:16;;;;;;;41.45;27.02;;;;;;;7.07;100.00;102216.75;5008496;28;20046;-84
2021/11/15 02:10:43;;;;;;;40.00;25.10;;;;;;;7.08;100.00;102209.59;4977853;28;20134;-86
2021/11/15 02:13:09;;;;;;;39.33;26.40;;;;;;;7.07;100.00;102208.75;4975232;28;20037;-87
2021/11/15 02:15:37;;;;;;;38.42;25.65;;;;;;;7.05;100.00;102205.34;4992331;28;20039;-89
2021/11/15 02:18:03;;;;;;;41.17;27.27;;;;;;;7.06;100.00;102207.03;4987674;28;20048;-87
2021/11/15 02:20:53;;;;;;;39.20;25.90;;;;;;;7.06;100.00;102207.03;4996956;28;20042;-86
2021/11/15 02:23:29;;;;;;;38.85;26.75;;;;;;;7.05;100.00;102204.47;5011977;28;20053;-86
2021/11/15 02:25:58;;;;;;;38.72;27.58;;;;;;;7.04;100.00;102202.78;5012408;28;20468;-87
2021/11/15 02:28:36;;;;;;;40.33;27.17;;;;;;;7.05;100.00;102204.47;5010928;28;20137;-86
2021/11/15 02:31:04;;;;;;;39.10;27.00;;;;;;;7.04;100.00;102192.09;4989651;28;20189;-87
2021/11/15 02:33:31;;;;;;;35.10;22.65;;;;;;;7.02;100.00;102202.91;4991576;28;20060;-88
2021/11/15 02:35:58;;;;;;;39.67;26.52;;;;;;;7.03;100.00;102201.06;5010083;28;20184;-84
2021/11/15 02:38:34;;;;;;;38.72;26.02;;;;;;;7.01;100.00;102182.47;4977249;28;20057;-85
2021/11/15 02:41:04;;;;;;;37.70;24.95;;;;;;;6.99;100.00;102189.72;4988948;28;20099;-86
2021/11/15 02:43:34;;;;;;;39.40;25.42;;;;;;;7.00;100.00;102188.78;5010985;28;20053;-86
2021/11/15 02:46:05;;;;;;;;;;;;;;;7.00;100.00;102191.47;4994483;28;20486;-87
2021/11/15 02:48:31;;;;;;;35.42;21.75;;;;;;;6.88;100.00;102186.97;4993308;28;19919;-85
2021/11/15 02:50:57;;;;;;;34.92;23.98;;;;;;;6.88;100.00;102187.84;4978845;28;20038;-86
2021/11/15 02:53:24;;;;;;;41.17;22.25;;;;;;;6.91;100.00;102190.28;5010734;28;20051;-86
2021/11/15 02:55:50;;;;;;;32.70;20.98;;;;;;;6.92;100.00;102188.47;5007919;28;20087;-85
2021/11/15 02:58:18;;;;;;;35.67;23.02;;;;;;;6.93;100.00;102182.16;4991879;28;20104;-87
2021/11/15 03:00:56;;;;;;;35.13;22.30;;;;;;;6.93;100.00;102190.16;4993052;28;20129;-86
2021/11/15 03:03:24;;;;;;;37.83;23.97;;;;;;;6.92;100.00;102188.47;4993458;28;20125;-88
2021/11/15 03:05:52;;;;;;;38.50;22.50;;;;;;;6.89;100.00;102186.88;5006701;28;20034;-88
2021/11/15 03:08:20;;;;;;;37.42;23.60;;;;;;;6.89;100.00;102189.53;4993196;28;20050;-87
2021/11/15 03:10:54;;;;;;;38.53;21.85;;;;;;;6.89;100.00;102183.34;5008339;28;20038;-86
2021/11/15 03:13:22;;;;;;;38.33;22.83;;;;;;;6.90;100.00;102180.56;4994556;28;20398;-86
2021/11/15 03:15:52;;;;;;;38.60;23.63;;;;;;;6.90;100.00;102177.88;4978082;28;20057;-88
2021/11/15 03:18:20;;;;;;;36.47;23.85;;;;;;;6.92;100.00;102183.13;5010494;28;20128;-87
2021/11/15 03:20:51;;;;;;;39.33;21.85;;;;;;;6.88;100.00;102177.16;4978680;28;20042;-86
2021/11/15 03:23:26;;;;;;;42.22;25.80;;;;;;;6.87;100.00;102180.78;4993569;28;20176;-87
2021/11/15 03:25:53;;;;;;;42.80;24.90;;;;;;;6.88;100.00;102179.81;4977078;28;20038;-86
2021/11/15 03:28:23;;;;;;;41.78;23.83;;;;;;;6.86;100.00;102184.41;4977053;28;20092;-87
2021/11/15 03:31:00;;;;;;;38.30;23.27;;;;;;;6.87;100.00;102191.44;4990378;28;20041;-87
2021/11/15 03:33:29;;;;;;;39.80;25.30;;;;;;;6.87;100.00;102185.25;4993833;28;20041;-85
2021/11/15 03:35:57;;;;;;;44.13;24.65;;;;;;;6.87;100.00;102180.78;4977951;28;20045;-85
2021/11/15 03:38:23;;;;;;;42.30;25.40;;;;;;;6.88;100.00;102193.16;5009419;28;20034;-86
2021/11/15 03:40:52;;;;;;;44.63;25.00;;;;;;;6.89;100.00;102181.53;4992190;28;20081;-86
2021/11/15 03:43:26;;;;;;;40.47;23.75;;;;;;;6.84;100.00;102191.66;4992291;28;20375;-86
2021/11/15 03:45:53;;;;;;;42.35;24.67;;;;;;;6.83;100.00;102184.63;5011505;28;20042;-87
2021/11/15 03:48:21;;;;;;;40.47;26.33;;;;;;;6.80;100.00;102186.66;4976437;28;20501;-87
2021/11/15 03:50:54;;;;;;;45.50;27.08;;;;;;;6.85;100.00;102195.16;4993427;28;20042;-86
2021/11/15 03:53:24;;;;;;;44.60;25.52;;;;;;;6.80;100.00;102194.66;4977843;28;20034;-87
2021/11/15 03:55:52;;;;;;;44.10;26.30;;;;;;;6.85;100.00;102195.16;4992672;28;20109;-87
2021/11/15 03:58:19;;;;;;;43.85;26.42;;;;;;;6.82;100.00;102196.25;4992343;28;20038;-89
2021/11/15 04:00:48;;;;;;;44.47;29.05;;;;;;;6.84;100.00;102186.31;5007445;28;20124;-86
2021/11/15 04:03:28;;;;;;;44.97;26.30;;;;;;;6.85;100.00;102189.84;4992890;28;20042;-88
2021/11/15 04:06:01;;;;;;;44.55;26.88;;;;;;;6.82;100.00;102198.06;4978616;28;20050;-88
2021/11/15 04:08:34;;;;;;;44.22;27.30;;;;;;;6.84;100.00;102198.81;4992777;28;20135;-88
2021/11/15 04:11:04;;;;;;;42.85;24.90;;;;;;;6.81;100.00;102196.34;4976492;28;20038;-87
2021/11/15 04:13:33;;;;;;;46.67;27.85;;;;;;;6.82;100.00;102187.38;4989320;28;20410;-89
2021/11/15 04:16:03;;;;;;;45.13;25.55;;;;;;;6.80;100.00;102184.84;4993044;28;20124;-87
2021/11/15 04:18:41;;;;;;;45.13;28.92;;;;;;;6.83;100.00;102189.09;4988807;28;20057;-85
2021/11/15 04:21:12;;;;;;;46.85;26.40;;;;;;;6.81;100.00;102175.00;5010020;28;20034;-87
2021/11/15 04:23:40;;;;;;;47.17;28.00;;;;;;;6.80;100.00;102178.66;4992443;28;20048;-86
2021/11/15 04:26:13;;;;;;;51.47;28.67;;;;;;;6.77;100.00;102177.91;5008289;28;20042;-88
2021/11/15 04:28:42;;;;;;;48.75;28.10;;;;;;;6.79;100.00;102177.81;4973639;28;20479;-88
2021/11/15 04:31:09;;;;;;;51.33;29.20;;;;;;;6.77;100.00;102177.91;4992486;28;20050;-89
2021/11/15 04:33:35;;;;;;;50.05;27.67;;;;;;;6.76;100.00;102177.97;4990037;28;20053;-86
2021/11/15 04:36:04;;;;;;;47.67;28.60;;;;;;;6.75;100.00;102176.28;5008228;28;20088;-88
2021/11/15 04:38:37;;;;;;;48.00;28.08;;;;;;;6.74;100.00;102177.25;4977108;28;20375;-88
2021/11/15 04:41:04;;;;;;;47.13;26.48;;;;;;;6.70;100.00;102175.75;4981198;28;20046;-88
2021/11/15 04:43:32;;;;;;;50.05;28.45;;;;;;;6.71;100.00;102182.81;4976463;28;20083;-86
2021/11/15 04:45:57;;;;;;;49.63;27.92;;;;;;;6.69;100.00;102182.06;4973561;28;20042;-86
2021/11/15 04:48:25;;;;;;;47.50;26.50;;;;;;;6.68;100.00;102180.34;5006457;28;20834;-87
2021/11/15 04:50:52;;;;;;;50.08;27.73;;;;;;;6.68;100.00;102185.69;4990448;28;20046;-88
2021/11/15 04:53:24;;;;;;;53.92;28.92;;;;;;;6.69;100.00;102182.91;4993655;28;20041;-86
2021/11/15 04:55:49;;;;;;;51.78;28.67;;;;;;;6.64;100.00;102182.34;5008044;28;20036;-88
2021/11/15 04:58:15;;;;;;;52.42;29.65;;;;;;;6.66;100.00;102190.25;4992331;28;20041;-87
2021/11/15 05:00:41;;;;;;;54.88;30.17;;;;;;;6.66;100.00;102185.78;4992007;28;20402;-85
2021/11/15 05:03:06;;;;;;;50.95;28.63;;;;;;;6.65;100.00;102181.41;5010118;28;20045;-85
2021/11/15 05:05:33;;;;;;;48.97;27.00;;;;;;;6.63;100.00;102178.00;4994133;28;20042;-85
2021/11/15 05:07:59;;;;;;;56.20;31.15;;;;;;;6.62;100.00;102178.06;4993460;28;20053;-87
2021/11/15 05:10:36;;;;;;;53.55;29.88;;;;;;;6.57;100.00;102182.91;5009492;28;20046;-87
2021/11/15 05:13:06;;;;;;;58.47;32.05;;;;;;;6.57;100.00;102177.56;4978047;28;20045;-85
2021/11/15 05:15:32;;;;;;;56.80;30.63;;;;;;;6.58;100.00;102173.91;5010937;28;20509;-90
2021/11/15 05:17:58;;;;;;;52.50;29.73;;;;;;;6.55;100.00;102181.16;4976642;28;20065;-90
2021/11/15 05:20:23;;;;;;;51.13;31.05;;;;;;;6.55;100.00;102175.84;4984721;28;20487;-86
2021/11/15 05:22:50;;;;;;;56.67;30.15;;;;;;;6.53;100.00;102180.44;5000925;28;20355;-87
2021/11/15 05:25:19;;;;;;;55.70;28.63;;;;;;;6.53;100.00;102180.44;5005364;28;20050;-85
2021/11/15 05:27:46;;;;;;;55.17;30.45;;;;;;;6.53;100.00;102180.44;4974480;28;20053;-86
2021/11/15 05:30:24;;;;;;;56.15;30.80;;;;;;;6.54;100.00;102181.28;4989049;28;20077;-87
2021/11/15 05:32:51;;;;;;;57.00;30.45;;;;;;;6.52;100.00;102178.72;5006148;28;20041;-87
2021/11/15 05:35:25;;;;;;;54.88;30.60;;;;;;;6.51;100.00;102176.16;4991109;28;20060;-85
2021/11/15 05:37:57;;;;;;;58.90;32.40;;;;;;;6.52;100.00;102175.19;5005458;28;20129;-86
2021/11/15 05:40:25;;;;;;;58.90;32.58;;;;;;;6.52;100.00;102178.72;4989863;28;20474;-86
2021/11/15 05:42:55;;;;;;;57.70;34.45;;;;;;;6.52;100.00;102176.03;5005834;28;20053;-84
2021/11/15 05:45:23;;;;;;;62.25;34.35;;;;;;;6.49;100.00;102175.41;4984510;28;20503;-86
2021/11/15 05:47:50;;;;;;;59.80;35.08;;;;;;;6.49;100.00;102173.59;5000188;28;20038;-87
2021/11/15 05:50:17;;;;;;;62.03;32.92;;;;;;;6.50;100.00;102171.75;4982306;28;20405;-87
2021/11/15 05:52:43;;;;;;;59.67;32.72;;;;;;;6.49;100.00;102175.41;4989757;28;20080;-89
2021/11/15 05:55:12;;;;;;;64.00;36.97;;;;;;;6.46;100.00;102184.47;4989304;28;20052;-88
2021/11/15 05:57:37;;;;;;;60.42;36.08;;;;;;;6.50;100.00;102183.31;4977923;28;20042;-90
2021/11/15 06:00:06;;;;;;;64.47;38.38;;;;;;;6.52;100.00;102186.72;4993722;28;20490;-91
2021/11/15 06:02:32;;;;;;;62.70;33.97;;;;;;;6.48;100.00;102187.88;4977227;28;20049;-87
2021/11/15 06:04:58;;;;;;;63.28;33.88;;;;;;;6.48;100.00;102177.22;4970313;28;20080;-88
2021/11/15 06:07:23;;;;;;;65.22;35.20;;;;;;;6.46;100.00;102188.94;4977022;28;20065;-87
2021/11/15 06:09:48;;;;;;;63.92;36.53;;;;;;;6.48;100.00;102185.22;4994041;28;20490;-88
2021/11/15 06:12:17;;;;;;;62.95;35.10;;;;;;;6.46;100.00;102186.28;5005558;28;20124;-88
2021/11/15 06:14:44;;;;;;;57.50;31.45;;;;;;;6.43;100.00;102186.50;5008055;28;20057;-89
2021/11/15 06:17:09;;;;;;;61.92;33.92;;;;;;;6.41;100.00;102186.56;5002362;28;20034;-87
2021/11/15 06:19:34;;;;;;;64.13;34.55;;;;;;;6.42;100.00;102190.13;4992835;28;20054;-86
2021/11/15 06:22:01;;;;;;;58.53;33.65;;;;;;;6.42;100.00;102185.63;5009488;28;20138;-89
2021/11/15 06:24:27;;;;;;;58.03;33.95;;;;;;;6.43;100.00;102192.66;5003294;28;20053;-87
2021/11/15 06:26:52;;;;;;;55.42;30.77;;;;;;;6.42;100.00;102196.31;4969054;28;20038;-87
2021/11/15 06:29:18;;;;;;;57.40;33.60;;;;;;;6.39;100.00;102193.84;4988970;28;20045;-87
2021/11/15 06:31:43;;;;;;;56.17;31.40;;;;;;;6.39;100.00;102201.84;5002164;28;20056;-89
2021/11/15 06:34:09;;;;;;;54.70;29.45;;;;;;;6.40;100.00;102195.53;4971243;28;20129;-85
2021/11/15 06:36:35;;;;;;;61.72;30.70;;;;;;;6.38;100.00;102200.13;4989793;28;20057;-89
2021/11/15 06:39:02;;;;;;;56.75;33.72;;;;;;;6.39;100.00;102201.84;4992050;28;20153;-85
2021/11/15 06:41:27;;;;;;;56.13;30.85;;;;;;;6.40;100.00;102203.53;5001492;28;20084;-88
2021/11/15 06:43:53;;;;;;;60.13;33.90;;;;;;;6.43;100.00;102202.50;4961842;28;20038;-86
2021/11/15 06:46:19;;;;;;;60.55;34.33;;;;;;;6.43;100.00;102203.34;4990206;28;20124;-86
2021/11/15 06:48:44;;;;;;;62.28;34.35;;;;;;;6.44;100.00;102199.69;5008930;28;20038;-86
2021/11/15 06:51:11;;;;;;;60.65;31.35;;;;;;;6.42;100.00;102196.31;5008633;28;20359;-85
2021/11/15 06:53:39;;;;;;;60.60;34.75;;;;;;;6.42;100.00;102201.63;4986753;28;20121;-88
2021/11/15 06:56:06;;;;;;;65.40;35.30;;;;;;;6.44;100.00;102201.53;4992506;28;20046;-87
2021/11/15 06:58:32;;;;;;;60.78;33.22;;;;;;;6.42;100.00;102201.63;4989498;28;20050;-88
2021/11/15 07:00:59;;;;;;;63.47;32.97;;;;;;;6.33;100.00;102208.44;5008325;28;20034;-88
2021/11/15 07:03:25;;;;;;;64.10;30.25;;;;;;;6.28;100.00;102221.22;5005794;28;20474;-89
2021/11/15 07:05:50;;;;;;;60.80;33.25;;;;;;;6.27;100.00;102229.31;4977192;28;20046;-90
2021/11/15 07:08:16;;;;;;;61.90;33.42;;;;;;;6.25;100.00;102234.75;5009099;28;20037;-86
2021/11/15 07:10:43;;;;;;;64.70;33.97;;;;;;;6.32;100.00;102235.19;4993717;28;20050;-87
2021/11/15 07:13:13;;;;;;;68.45;35.97;;;;;;;6.34;100.00;102238.63;4995362;28;20398;-86
2021/11/15 07:15:39;;;;;;;67.03;35.03;;;;;;;6.35;100.00;102236.81;4978400;28;20061;-86
2021/11/15 07:18:04;;;;;;;69.38;36.85;;;;;;;6.33;100.00;102235.09;4992604;28;20538;-86
2021/11/15 07:20:29;;;;;;;65.40;34.78;;;;;;;6.30;100.00;102227.31;4990408;28;20048;-85
2021/11/15 07:22:56;;;;;;;68.53;33.45;;;;;;;6.32;100.00;102229.84;4990223;28;20478;-86
2021/11/15 07:25:22;;;;;;;66.80;35.63;;;;;;;6.31;100.00;102236.16;5003684;28;20046;-85
2021/11/15 07:27:50;;;;;;;64.57;35.08;;;;;;;6.29;100.00;102230.06;4975114;28;20046;-87
2021/11/15 07:30:16;;;;;;;68.40;37.47;;;;;;;6.29;100.00;102238.06;4988255;28;20062;-87
2021/11/15 07:32:42;;;;;;;63.17;34.67;;;;;;;6.30;100.00;102242.44;5008728;28;20520;-87
2021/11/15 07:35:08;;;;;;;60.80;33.65;;;;;;;6.28;100.00;102247.03;4990458;28;20577;-84
2021/11/15 07:37:35;;;;;;;61.75;29.67;;;;;;;6.23;100.00;102238.47;5001337;28;20038;-86
2021/11/15 07:40:05;;;;;;;61.88;33.00;;;;;;;6.22;100.00;102236.78;4975797;28;20397;-86
2021/11/15 07:42:31;;;;;;;61.15;32.95;;;;;;;6.23;100.00;102249.97;5004119;28;20046;-85
2021/11/15 07:44:56;;;;;;;60.33;32.08;;;;;;;6.24;100.00;102250.84;5007280;28;20517;-88
2021/11/15 07:47:23;;;;;;;60.35;32.03;;;;;;;6.24;100.00;102243.72;5005349;28;20042;-85
2021/11/15 07:49:48;;;;;;;57.55;32.30;;;;;;;6.23;100.00;102249.97;5007355;28;20037;-88
2021/11/15 07:52:18;;;;;;;60.53;31.90;;;;;;;6.23;100.00;102249.13;4986851;28;20046;-85
2021/11/15 07:54:46;;;;;;;62.13;30.33;;;;;;;6.21;100.00;102243.88;4990962;28;20047;-85
2021/11/15 07:57:12;;;;;;;60.10;29.70;;;;;;;6.19;100.00;102236.97;5006077;28;20506;-88
2021/11/15 07:59:38;;;;;;;53.20;28.25;;;;;;;6.19;100.00;102240.50;4993432;28;20053;-86
2021/11/15 08:02:04;;;;;;;54.42;27.60;;;;;;;6.14;100.00;102237.25;4989361;28;20041;-86
2021/11/15 08:04:30;;;;;;;53.67;26.15;;;;;;;6.07;100.00;102236.81;5004754;28;20124;-84
2021/11/15 08:06:56;;;;;;;55.55;28.40;;;;;;;6.08;100.00;102243.84;5007822;28;20153;-87
2021/11/15 08:09:22;;;;;;;54.70;28.05;;;;;;;6.13;100.00;102240.91;5004176;28;20178;-87
2021/11/15 08:11:50;;;;;;;54.00;29.45;;;;;;;6.16;100.00;102247.81;4994065;28;20046;-87
2021/11/15 08:14:16;;;;;;;58.38;29.05;;;;;;;6.14;100.00;102237.25;4997405;28;20062;-86
2021/11/15 08:16:44;;;;;;;53.75;27.33;;;;;;;6.12;100.00;102240.97;5006227;28;20570;-87
2021/11/15 08:19:10;;;;;;;51.03;24.80;;;;;;;6.07;100.00;102239.47;4987766;28;20057;-89
2021/11/15 08:21:35;;;;;;;52.33;27.92;;;;;;;6.08;100.00;102230.53;5005540;28;20498;-86
2021/11/15 08:24:36;;;;;;;52.47;25.05;;;;;;;6.01;100.00;102226.56;4990098;28;20736;-87
2021/11/15 08:27:03;;;;;;;47.72;23.35;;;;;;;5.96;100.00;102222.47;4990788;28;20517;-87
2021/11/15 08:29:32;;;;;;;50.35;25.98;;;;;;;5.97;100.00;102221.50;4973691;28;20501;-87
2021/11/15 08:32:03;;;;;;;49.90;24.48;;;;;;;5.96;100.00;102218.00;4973120;28;20049;-89
2021/11/15 08:34:29;;;;;;;47.72;24.42;;;;;;;5.96;100.00;102231.31;4989744;28;20046;-86
2021/11/15 08:36:55;;;;;;;44.50;23.85;;;;;;;5.98;100.00;102226.72;5007309;28;20104;-88
2021/11/15 08:39:23;;;;;;;47.60;25.65;;;;;;;5.97;100.00;102230.34;4991164;28;20629;-89
2021/11/15 08:41:52;;;;;;;51.50;25.25;;;;;;;5.96;100.00;102226.00;4990257;28;20038;-86
2021/11/15 08:44:18;;;;;;;47.05;22.10;;;;;;;5.95;100.00;102229.59;4989793;28;20045;-88
2021/11/15 08:46:47;;;;;;;48.33;24.65;;;;;;;5.95;100.00;102229.59;4995284;28;20052;-88
2021/11/15 08:49:15;;;;;;;50.58;26.95;;;;;;;6.01;100.00;102229.22;5004497;28;20041;-88
2021/11/15 08:51:42;;;;;;;49.35;24.92;;;;;;;6.01;100.00;102223.00;4974050;28;20046;-87
2021/11/15 08:54:14;;;;;;;49.53;25.10;;;;;;;6.01;100.00;102225.69;5005500;28;20037;-86
2021/11/15 08:56:44;;;;;;;49.90;25.73;;;;;;;5.98;100.00;102228.53;4989516;28;20460;-85
2021/11/15 08:59:10;;;;;;;47.70;26.75;;;;;;;5.99;100.00;102224.94;4991499;28;20057;-86
2021/11/15 09:01:35;;;;;;;45.60;21.92;;;;;;;5.96;100.00;102227.81;5005897;28;20182;-89
2021/11/15 09:04:01;;;;;;;55.70;28.42;;;;;;;5.94;100.00;102227.91;5005546;28;20090;-89
2021/11/15 09:06:30;;;;;;;52.05;26.02;;;;;;;5.96;100.00;102234.00;4999965;28;20046;-88
2021/11/15 09:08:56;;;;;;;60.92;26.67;;;;;;;5.94;100.00;102241.22;5006793;28;20387;-85
2021/11/15 09:11:22;;;;;;;55.88;26.90;;;;;;;5.89;100.00;102243.28;4991761;28;20278;-85
2021/11/15 09:13:48;;;;;;;56.22;27.95;;;;;;;5.89;100.00;102238.81;5006947;28;20049;-87
2021/11/15 09:16:15;;;;;;;58.08;27.08;;;;;;;5.88;100.00;102241.59;4991108;28;20049;-86
2021/11/15 09:18:43;;;;;;;56.10;26.50;;;;;;;5.83;100.00;102239.19;5000845;28;20498;-87
2021/11/15 09:21:10;;;;;;;58.05;27.75;;;;;;;5.81;100.00;102248.25;4994149;28;20053;-85
2021/11/15 09:23:39;;;;;;;57.95;26.67;;;;;;;5.81;100.00;102248.25;4989236;28;20041;-86
2021/11/15 09:26:07;;;;;;;57.33;26.00;;;;;;;5.80;100.00;102252.72;4971752;28;20042;-84
2021/11/15 09:28:32;;;;;;;54.28;26.08;;;;;;;5.82;100.00;102244.66;5004074;28;20517;-88
2021/11/15 09:30:59;;;;;;;50.25;23.17;;;;;;;5.77;100.00;102242.25;4973535;28;20038;-88
2021/11/15 09:33:25;;;;;;;46.08;24.45;;;;;;;5.79;100.00;102244.84;4974066;28;20050;-90
2021/11/15 09:35:52;;;;;;;53.42;24.00;;;;;;;5.76;100.00;102237.91;4972455;28;20048;-87
2021/11/15 09:38:19;;;;;;;47.92;24.55;;;;;;;5.76;100.00;102234.38;4967359;28;20044;-89
2021/11/15 09:40:49;;;;;;;48.92;24.42;;;;;;;5.79;100.00;102239.50;4987124;28;20037;-84
2021/11/15 09:43:15;;;;;;;50.42;25.15;;;;;;;5.83;100.00;102241.00;4985245;28;20037;-88
2021/11/15 09:45:40;;;;;;;50.05;27.10;;;;;;;5.85;100.00;102244.44;5002352;28;20038;-86
2021/11/15 09:48:09;;;;;;;55.20;29.10;;;;;;;5.91;100.00;102249.38;4988984;28;20513;-84
2021/11/15 09:50:36;;;;;;;51.50;26.65;;;;;;;5.91;100.00;102253.84;4986051;28;20037;-87
2021/11/15 09:53:01;;;;;;;49.45;25.42;;;;;;;5.86;100.00;102246.16;4989281;28;20133;-88
2021/11/15 09:55:27;;;;;;;51.03;27.00;;;;;;;5.91;100.00;102252.03;5004172;28;20148;-89
2021/11/15 09:57:52;;;;;;;48.08;24.30;;;;;;;5.91;100.00;102248.53;4973322;28;20080;-84
2021/11/15 10:00:23;;;;;;;53.67;28.10;;;;;;;5.94;100.00;102248.34;4985769;28;20704;-89
2021/11/15 10:02:50;;;;;;;50.83;26.17;;;;;;;5.96;100.00;102251.78;5002591;28;20030;-86
2021/11/15 10:05:18;;;;;;;55.05;26.05;;;;;;;5.97;100.00;102249.00;4988058;28;20082;-89
2021/11/15 10:07:55;;;;;;;54.00;28.60;;;;;;;5.99;100.00;102241.78;5003151;28;20049;-87
2021/11/15 10:10:34;;;;;;;53.85;27.98;;;;;;;5.95;100.00;102245.59;5003811;28;20137;-86
2021/11/15 10:13:07;;;;;;;52.60;29.65;;;;;;;5.92;100.00;102243.09;5001732;28;20048;-87
2021/11/15 10:15:52;;;;;;;57.08;29.50;;;;;;;5.95;100.00;102240.25;5001535;28;20042;-85
2021/11/15 10:18:40;;;;;;;55.72;30.35;;;;;;;5.94;100.00;102241.22;5000254;28;20047;-86
2021/11/15 10:21:19;;;;;;;52.55;28.50;;;;;;;5.97;100.00;102241.03;4987804;28;20056;-88
2021/11/15 10:23:45;;;;;;;53.60;28.90;;;;;;;5.98;100.00;102237.38;4988223;28;20049;-88
2021/11/15 10:26:15;;;;;;;49.67;26.23;;;;;;;5.95;100.00;102240.25;5004685;28;20046;-86
2021/11/15 10:28:42;;;;;;;49.83;26.40;;;;;;;6.00;100.00;102240.81;4986344;28;20048;-89
2021/11/15 10:31:35;;;;;;;49.35;27.17;;;;;;;6.02;100.00;102232.75;4989719;28;20050;-87
2021/11/15 10:34:03;;;;;;;53.55;29.60;;;;;;;6.04;100.00;102229.03;5002576;28;20053;-87
2021/11/15 10:36:46;;;;;;;52.22;28.42;;;;;;;6.02;100.00;102230.94;4984088;28;20387;-87
2021/11/15 10:39:12;;;;;;;48.90;28.58;;;;;;;6.07;100.00;102226.16;5001302;28;20042;-87
2021/11/15 10:41:37;;;;;;;52.55;27.25;;;;;;;6.04;100.00;102223.69;5008926;28;20044;-86
2021/11/15 10:44:08;;;;;;;51.35;26.55;;;;;;;6.09;100.00;102226.88;4957205;28;20133;-86
2021/11/15 10:46:36;;;;;;;48.83;27.13;;;;;;;6.08;100.00;102213.69;4986374;28;20046;-85
2021/11/15 10:49:05;;;;;;;50.47;26.15;;;;;;;6.05;100.00;102212.06;5004356;28;20126;-88
2021/11/15 10:51:53;;;;;;;48.05;23.88;;;;;;;6.09;100.00;102210.91;4975604;28;20494;-87
2021/11/15 10:54:44;;;;;;;51.53;26.63;;;;;;;6.09;100.00;102212.72;4992272;28;20471;-85
2021/11/15 10:57:25;;;;;;;48.72;26.40;;;;;;;6.07;100.00;102199.50;5008585;28;20034;-85
2021/11/15 11:02:36;;;;;;;52.33;28.70;;;;;;;6.09;100.00;102194.91;5006437;28;20049;-89
2021/11/15 11:05:09;;;;;;;55.45;28.60;;;;;;;6.15;100.00;102192.78;5003758;28;20153;-87
2021/11/15 11:07:36;;;;;;;52.35;26.92;;;;;;;6.10;100.00;102199.31;5006239;28;20120;-90
2021/11/15 11:10:06;;;;;;;56.55;27.98;;;;;;;6.13;100.00;102189.38;5000915;28;20108;-88
2021/11/15 11:12:38;;;;;;;59.47;30.42;;;;;;;6.13;100.00;102184.03;4989208;28;20038;-88
2021/11/15 11:15:58;;;;;;;53.35;25.88;;;;;;;6.12;100.00;102187.69;5010382;28;20038;-85
2021/11/15 11:18:23;;;;;;;54.47;27.20;;;;;;;6.08;100.00;102179.88;4980626;28;20042;-85